Aérodrome :
LOGIN :

S'inscrire | Disclaimer

   EN    FR    IT 

 










Légende :    VFR   VFR Marginal   IFR   IFR Intensif   IFR Très Intensif
Visi : 
Plafond : 
>= 8 km
>= 3000ft
5 à 8 km
1000 à 3000 ft
1500m à 5 km
500 à 1000 ft
800 à 1500m
200 à 500 ft
< 800m
< 200 ft
Symboles :   Orages  Brouillard  Fortes neiges  Fortes précipitations  Vent > 20 kt
SIGMETs :   Divers  Orages  Givrage  Turbulence  Onde Orograph.  Cendres Volcan.







- Altitude de l'aérodrome : 13 ft
- Code IATA : OST


EBOS - Oostend bruges Int.

DERNIER METAR :
  • 232250Z 22007KT 9999 SCT008 16/14 Q1015 NOSIG

METARs EXPIRÉS :
  • 232220Z 22008KT 9999 FEW008 16/14 Q1015 NOSIG
  • 232150Z 24009KT 9999 FEW035 17/14 Q1015 NOSIG
  • 232120Z 24010KT 9999 FEW011 SCT035 17/14 Q1015 NOSIG
  • 232050Z 24011KT 9999 FEW011 BKN035 17/15 Q1015 NOSIG
  • 232020Z 23008KT 9999 FEW013 BKN028 17/14 Q1015 NOSIG

TAF TAF EBOS
Valide du 23 à 18h jusqu'au 25 à 00h UTC


231720Z 2318/2424 24010KT 9999 FEW020
PROB30
TEMPO 2403/2407 BKN007
Pas de NOTAMs connus pour ce terrain.



MET'MAP, la Météo Aéronautique d'un coup d'oeil ! - Copyright ORBIFLY Décembre 2007 - Disclaimer

ORBIFLY MET'MAP TEAM :

Programmation & Développement : Alexandra Zaïnal
Conception & Développement : Baudouin d'Aumeries
Co-Programmation & Développement : Marc-Olivier Méhu
Soutien technique & logistique : Manuel Goepfert

Contact : metmap@orbifly.com




SOURCES & CREDITS :

   NOAA